sensor_id;sensor_type;location;lat;lon;timestamp;P1;durP1;ratioP1;P2;durP2;ratioP2
55290;SDS011;41155;39.768;2.712;2023-04-10T00:01:28;9.73;;;5.95;;
55290;SDS011;41155;39.768;2.712;2023-04-10T00:03:59;10.23;;;6.32;;
55290;SDS011;41155;39.768;2.712;2023-04-10T00:06:25;5.50;;;5.15;;
55290;SDS011;41155;39.768;2.712;2023-04-10T00:08:52;6.70;;;5.43;;
55290;SDS011;41155;39.768;2.712;2023-04-10T00:11:17;6.28;;;5.60;;
55290;SDS011;41155;39.768;2.712;2023-04-10T00:13:43;9.32;;;5.57;;
55290;SDS011;41155;39.768;2.712;2023-04-10T00:16:09;6.30;;;5.65;;
55290;SDS011;41155;39.768;2.712;2023-04-10T00:18:35;12.48;;;8.43;;
55290;SDS011;41155;39.768;2.712;2023-04-10T00:21:01;7.70;;;7.10;;
55290;SDS011;41155;39.768;2.712;2023-04-10T00:23:27;6.72;;;6.13;;
55290;SDS011;41155;39.768;2.712;2023-04-10T00:25:55;9.05;;;6.18;;
55290;SDS011;41155;39.768;2.712;2023-04-10T00:28:21;10.93;;;5.43;;
55290;SDS011;41155;39.768;2.712;2023-04-10T00:30:47;7.13;;;5.60;;
55290;SDS011;41155;39.768;2.712;2023-04-10T00:33:12;9.95;;;5.82;;
55290;SDS011;41155;39.768;2.712;2023-04-10T00:35:38;6.78;;;6.10;;
55290;SDS011;41155;39.768;2.712;2023-04-10T00:38:03;7.72;;;6.03;;
55290;SDS011;41155;39.768;2.712;2023-04-10T00:40:29;8.60;;;6.35;;
55290;SDS011;41155;39.768;2.712;2023-04-10T00:42:54;6.63;;;6.03;;
55290;SDS011;41155;39.768;2.712;2023-04-10T00:45:20;6.25;;;5.75;;
55290;SDS011;41155;39.768;2.712;2023-04-10T00:47:46;8.75;;;6.53;;
55290;SDS011;41155;39.768;2.712;2023-04-10T00:50:11;7.85;;;6.00;;
55290;SDS011;41155;39.768;2.712;2023-04-10T00:52:37;7.13;;;5.68;;
55290;SDS011;41155;39.768;2.712;2023-04-10T00:55:03;5.47;;;4.85;;
55290;SDS011;41155;39.768;2.712;2023-04-10T00:57:29;9.40;;;5.80;;
55290;SDS011;41155;39.768;2.712;2023-04-10T00:59:55;11.45;;;6.20;;
55290;SDS011;41155;39.768;2.712;2023-04-10T01:02:20;5.90;;;5.50;;
55290;SDS011;41155;39.768;2.712;2023-04-10T01:04:46;13.98;;;6.93;;
55290;SDS011;41155;39.768;2.712;2023-04-10T01:07:36;9.80;;;8.02;;
55290;SDS011;41155;39.768;2.712;2023-04-10T01:10:00;11.65;;;8.18;;
55290;SDS011;41155;39.768;2.712;2023-04-10T01:12:59;9.43;;;8.27;;
55290;SDS011;41155;39.768;2.712;2023-04-10T01:15:36;8.30;;;7.50;;
55290;SDS011;41155;39.768;2.712;2023-04-10T01:18:18;7.25;;;6.53;;
55290;SDS011;41155;39.768;2.712;2023-04-10T01:20:50;8.20;;;5.40;;
55290;SDS011;41155;39.768;2.712;2023-04-10T01:30:48;9.52;;;7.63;;
55290;SDS011;41155;39.768;2.712;2023-04-10T01:33:19;11.82;;;8.60;;
55290;SDS011;41155;39.768;2.712;2023-04-10T01:35:48;11.13;;;7.65;;
55290;SDS011;41155;39.768;2.712;2023-04-10T01:38:17;9.13;;;7.10;;
55290;SDS011;41155;39.768;2.712;2023-04-10T01:40:44;7.10;;;6.43;;
55290;SDS011;41155;39.768;2.712;2023-04-10T01:43:15;6.90;;;6.28;;
55290;SDS011;41155;39.768;2.712;2023-04-10T01:45:42;8.10;;;6.00;;
55290;SDS011;41155;39.768;2.712;2023-04-10T01:48:10;7.35;;;6.43;;
55290;SDS011;41155;39.768;2.712;2023-04-10T01:50:36;9.63;;;6.60;;
55290;SDS011;41155;39.768;2.712;2023-04-10T01:53:04;12.63;;;6.47;;
55290;SDS011;41155;39.768;2.712;2023-04-10T01:55:31;8.40;;;6.43;;
55290;SDS011;41155;39.768;2.712;2023-04-10T01:57:58;9.77;;;7.68;;
55290;SDS011;41155;39.768;2.712;2023-04-10T02:00:25;9.65;;;7.35;;
55290;SDS011;41155;39.768;2.712;2023-04-10T02:02:51;9.45;;;6.38;;
55290;SDS011;41155;39.768;2.712;2023-04-10T02:05:17;6.95;;;6.25;;
55290;SDS011;41155;39.768;2.712;2023-04-10T02:10:55;8.40;;;7.68;;
55290;SDS011;41155;39.768;2.712;2023-04-10T02:13:27;10.32;;;9.38;;
55290;SDS011;41155;39.768;2.712;2023-04-10T02:15:54;12.73;;;9.18;;
55290;SDS011;41155;39.768;2.712;2023-04-10T02:18:23;13.30;;;8.27;;
55290;SDS011;41155;39.768;2.712;2023-04-10T02:20:51;7.88;;;7.07;;
55290;SDS011;41155;39.768;2.712;2023-04-10T02:23:18;11.73;;;7.18;;
55290;SDS011;41155;39.768;2.712;2023-04-10T02:25:45;12.52;;;6.82;;
55290;SDS011;41155;39.768;2.712;2023-04-10T02:28:10;6.60;;;6.07;;
55290;SDS011;41155;39.768;2.712;2023-04-10T02:30:36;8.60;;;6.13;;
55290;SDS011;41155;39.768;2.712;2023-04-10T02:33:03;9.73;;;6.00;;
55290;SDS011;41155;39.768;2.712;2023-04-10T02:35:28;6.70;;;5.88;;
55290;SDS011;41155;39.768;2.712;2023-04-10T02:37:54;5.95;;;5.30;;
55290;SDS011;41155;39.768;2.712;2023-04-10T02:40:20;5.70;;;5.20;;
55290;SDS011;41155;39.768;2.712;2023-04-10T02:42:45;5.95;;;5.32;;
55290;SDS011;41155;39.768;2.712;2023-04-10T02:45:11;6.32;;;5.70;;
55290;SDS011;41155;39.768;2.712;2023-04-10T02:47:36;5.93;;;5.43;;
55290;SDS011;41155;39.768;2.712;2023-04-10T02:50:02;6.50;;;5.80;;
55290;SDS011;41155;39.768;2.712;2023-04-10T02:52:28;6.13;;;5.70;;
55290;SDS011;41155;39.768;2.712;2023-04-10T02:54:53;6.72;;;5.28;;
55290;SDS011;41155;39.768;2.712;2023-04-10T02:57:18;6.00;;;5.38;;
55290;SDS011;41155;39.768;2.712;2023-04-10T02:59:45;6.43;;;5.60;;
55290;SDS011;41155;39.768;2.712;2023-04-10T03:02:15;6.80;;;6.10;;
55290;SDS011;41155;39.768;2.712;2023-04-10T03:04:40;10.52;;;6.82;;
55290;SDS011;41155;39.768;2.712;2023-04-10T03:07:07;10.20;;;6.28;;
55290;SDS011;41155;39.768;2.712;2023-04-10T03:09:32;6.60;;;6.05;;
55290;SDS011;41155;39.768;2.712;2023-04-10T03:11:58;11.90;;;6.90;;
55290;SDS011;41155;39.768;2.712;2023-04-10T03:14:23;11.23;;;8.15;;
55290;SDS011;41155;39.768;2.712;2023-04-10T03:16:49;9.45;;;7.65;;
55290;SDS011;41155;39.768;2.712;2023-04-10T03:19:14;8.65;;;7.95;;
55290;SDS011;41155;39.768;2.712;2023-04-10T03:21:40;12.30;;;7.53;;
55290;SDS011;41155;39.768;2.712;2023-04-10T03:24:06;7.32;;;6.70;;
55290;SDS011;41155;39.768;2.712;2023-04-10T03:26:31;7.13;;;6.63;;
55290;SDS011;41155;39.768;2.712;2023-04-10T03:28:57;9.10;;;7.50;;
55290;SDS011;41155;39.768;2.712;2023-04-10T03:31:22;11.52;;;6.90;;
55290;SDS011;41155;39.768;2.712;2023-04-10T03:33:48;6.75;;;6.10;;
55290;SDS011;41155;39.768;2.712;2023-04-10T03:36:13;7.57;;;6.88;;
55290;SDS011;41155;39.768;2.712;2023-04-10T03:38:39;6.80;;;6.10;;
55290;SDS011;41155;39.768;2.712;2023-04-10T03:41:04;12.73;;;6.93;;
55290;SDS011;41155;39.768;2.712;2023-04-10T03:43:30;8.32;;;5.80;;
55290;SDS011;41155;39.768;2.712;2023-04-10T03:45:56;6.95;;;6.38;;
55290;SDS011;41155;39.768;2.712;2023-04-10T03:48:21;7.05;;;6.45;;
55290;SDS011;41155;39.768;2.712;2023-04-10T03:50:47;6.25;;;5.75;;
55290;SDS011;41155;39.768;2.712;2023-04-10T03:53:12;6.45;;;5.80;;
55290;SDS011;41155;39.768;2.712;2023-04-10T03:55:38;6.13;;;5.53;;
55290;SDS011;41155;39.768;2.712;2023-04-10T03:58:04;6.70;;;6.10;;
55290;SDS011;41155;39.768;2.712;2023-04-10T04:00:29;6.70;;;6.13;;
55290;SDS011;41155;39.768;2.712;2023-04-10T04:02:55;7.93;;;6.82;;
55290;SDS011;41155;39.768;2.712;2023-04-10T04:05:22;6.85;;;5.93;;
55290;SDS011;41155;39.768;2.712;2023-04-10T04:07:51;6.38;;;5.85;;
55290;SDS011;41155;39.768;2.712;2023-04-10T04:10:17;7.93;;;5.78;;
55290;SDS011;41155;39.768;2.712;2023-04-10T04:12:42;8.85;;;7.22;;
55290;SDS011;41155;39.768;2.712;2023-04-10T04:15:08;9.82;;;7.20;;
55290;SDS011;41155;39.768;2.712;2023-04-10T04:17:34;8.48;;;6.88;;
55290;SDS011;41155;39.768;2.712;2023-04-10T04:19:59;7.00;;;6.50;;
55290;SDS011;41155;39.768;2.712;2023-04-10T04:22:25;9.60;;;6.70;;
55290;SDS011;41155;39.768;2.712;2023-04-10T04:24:50;8.77;;;6.38;;
55290;SDS011;41155;39.768;2.712;2023-04-10T04:27:16;17.60;;;6.30;;
55290;SDS011;41155;39.768;2.712;2023-04-10T04:29:42;7.15;;;6.13;;
55290;SDS011;41155;39.768;2.712;2023-04-10T04:32:08;6.95;;;6.43;;
55290;SDS011;41155;39.768;2.712;2023-04-10T04:34:33;7.25;;;6.43;;
55290;SDS011;41155;39.768;2.712;2023-04-10T04:36:59;12.88;;;6.20;;
55290;SDS011;41155;39.768;2.712;2023-04-10T04:39:26;11.35;;;6.50;;
55290;SDS011;41155;39.768;2.712;2023-04-10T04:41:51;8.57;;;6.85;;
55290;SDS011;41155;39.768;2.712;2023-04-10T04:44:17;7.30;;;6.55;;
55290;SDS011;41155;39.768;2.712;2023-04-10T04:46:42;12.48;;;6.90;;
55290;SDS011;41155;39.768;2.712;2023-04-10T04:49:08;7.10;;;6.45;;
55290;SDS011;41155;39.768;2.712;2023-04-10T04:51:33;7.53;;;6.82;;
55290;SDS011;41155;39.768;2.712;2023-04-10T04:54:00;6.72;;;6.07;;
55290;SDS011;41155;39.768;2.712;2023-04-10T04:56:25;7.43;;;6.72;;
55290;SDS011;41155;39.768;2.712;2023-04-10T04:58:51;7.63;;;6.93;;
55290;SDS011;41155;39.768;2.712;2023-04-10T05:01:16;7.68;;;6.85;;
55290;SDS011;41155;39.768;2.712;2023-04-10T05:03:42;8.63;;;7.45;;
55290;SDS011;41155;39.768;2.712;2023-04-10T05:06:07;7.97;;;6.82;;
55290;SDS011;41155;39.768;2.712;2023-04-10T05:08:32;14.77;;;7.53;;
55290;SDS011;41155;39.768;2.712;2023-04-10T05:10:58;9.48;;;7.82;;
55290;SDS011;41155;39.768;2.712;2023-04-10T05:13:23;11.50;;;7.30;;
55290;SDS011;41155;39.768;2.712;2023-04-10T05:15:49;8.25;;;7.50;;
55290;SDS011;41155;39.768;2.712;2023-04-10T05:18:14;10.52;;;8.00;;
55290;SDS011;41155;39.768;2.712;2023-04-10T05:20:44;10.52;;;7.95;;
55290;SDS011;41155;39.768;2.712;2023-04-10T05:23:10;8.85;;;7.40;;
55290;SDS011;41155;39.768;2.712;2023-04-10T05:25:36;9.50;;;7.55;;
55290;SDS011;41155;39.768;2.712;2023-04-10T05:28:01;15.23;;;7.57;;
55290;SDS011;41155;39.768;2.712;2023-04-10T05:30:27;11.13;;;7.47;;
55290;SDS011;41155;39.768;2.712;2023-04-10T05:32:53;20.40;;;6.88;;
55290;SDS011;41155;39.768;2.712;2023-04-10T05:35:18;12.15;;;7.63;;
55290;SDS011;41155;39.768;2.712;2023-04-10T05:37:43;11.13;;;7.45;;
55290;SDS011;41155;39.768;2.712;2023-04-10T05:40:09;13.00;;;7.50;;
55290;SDS011;41155;39.768;2.712;2023-04-10T05:42:34;23.10;;;7.72;;
55290;SDS011;41155;39.768;2.712;2023-04-10T05:45:00;17.10;;;14.18;;
55290;SDS011;41155;39.768;2.712;2023-04-10T05:47:25;16.52;;;14.95;;
55290;SDS011;41155;39.768;2.712;2023-04-10T05:49:51;14.43;;;8.10;;
55290;SDS011;41155;39.768;2.712;2023-04-10T05:52:16;8.15;;;7.45;;
55290;SDS011;41155;39.768;2.712;2023-04-10T05:54:42;11.80;;;8.00;;
55290;SDS011;41155;39.768;2.712;2023-04-10T05:57:07;9.93;;;8.95;;
55290;SDS011;41155;39.768;2.712;2023-04-10T05:59:32;10.02;;;8.13;;
55290;SDS011;41155;39.768;2.712;2023-04-10T06:01:58;13.95;;;8.25;;
55290;SDS011;41155;39.768;2.712;2023-04-10T06:04:23;19.35;;;9.25;;
55290;SDS011;41155;39.768;2.712;2023-04-10T06:06:49;20.20;;;16.30;;
55290;SDS011;41155;39.768;2.712;2023-04-10T06:09:14;40.63;;;24.58;;
55290;SDS011;41155;39.768;2.712;2023-04-10T06:11:40;52.10;;;41.55;;
55290;SDS011;41155;39.768;2.712;2023-04-10T06:14:05;34.50;;;26.40;;
55290;SDS011;41155;39.768;2.712;2023-04-10T06:16:31;29.67;;;24.85;;
55290;SDS011;41155;39.768;2.712;2023-04-10T06:18:56;28.48;;;22.73;;
55290;SDS011;41155;39.768;2.712;2023-04-10T06:21:22;36.25;;;28.67;;
55290;SDS011;41155;39.768;2.712;2023-04-10T06:23:47;51.92;;;35.88;;
55290;SDS011;41155;39.768;2.712;2023-04-10T06:26:13;46.20;;;39.88;;
55290;SDS011;41155;39.768;2.712;2023-04-10T06:28:38;48.28;;;39.42;;
55290;SDS011;41155;39.768;2.712;2023-04-10T06:31:07;68.60;;;48.95;;
55290;SDS011;41155;39.768;2.712;2023-04-10T06:33:32;70.22;;;51.33;;
55290;SDS011;41155;39.768;2.712;2023-04-10T06:36:01;63.63;;;45.95;;
55290;SDS011;41155;39.768;2.712;2023-04-10T06:38:28;51.60;;;39.42;;
55290;SDS011;41155;39.768;2.712;2023-04-10T06:40:54;47.08;;;36.42;;
55290;SDS011;41155;39.768;2.712;2023-04-10T06:43:19;63.08;;;45.15;;
55290;SDS011;41155;39.768;2.712;2023-04-10T06:45:45;58.65;;;47.30;;
55290;SDS011;41155;39.768;2.712;2023-04-10T06:48:10;79.18;;;58.22;;
55290;SDS011;41155;39.768;2.712;2023-04-10T06:50:36;89.80;;;58.20;;
55290;SDS011;41155;39.768;2.712;2023-04-10T06:53:01;77.07;;;56.72;;
55290;SDS011;41155;39.768;2.712;2023-04-10T06:55:27;74.20;;;53.15;;
55290;SDS011;41155;39.768;2.712;2023-04-10T06:57:53;56.00;;;44.95;;
55290;SDS011;41155;39.768;2.712;2023-04-10T07:00:20;50.75;;;40.50;;
55290;SDS011;41155;39.768;2.712;2023-04-10T07:02:46;48.70;;;36.67;;
55290;SDS011;41155;39.768;2.712;2023-04-10T07:05:12;38.47;;;30.05;;
55290;SDS011;41155;39.768;2.712;2023-04-10T07:07:38;26.40;;;20.58;;
55290;SDS011;41155;39.768;2.712;2023-04-10T07:10:03;21.40;;;16.77;;
55290;SDS011;41155;39.768;2.712;2023-04-10T07:12:30;21.58;;;14.32;;
55290;SDS011;41155;39.768;2.712;2023-04-10T07:14:55;15.93;;;13.00;;
55290;SDS011;41155;39.768;2.712;2023-04-10T07:17:21;17.10;;;15.40;;
55290;SDS011;41155;39.768;2.712;2023-04-10T07:19:46;18.95;;;16.95;;
55290;SDS011;41155;39.768;2.712;2023-04-10T07:22:12;24.83;;;17.13;;
55290;SDS011;41155;39.768;2.712;2023-04-10T07:24:38;19.80;;;16.15;;
55290;SDS011;41155;39.768;2.712;2023-04-10T07:27:04;23.55;;;18.30;;
55290;SDS011;41155;39.768;2.712;2023-04-10T07:29:29;23.88;;;15.82;;
55290;SDS011;41155;39.768;2.712;2023-04-10T07:31:55;15.52;;;13.88;;
55290;SDS011;41155;39.768;2.712;2023-04-10T07:34:21;24.60;;;15.93;;
55290;SDS011;41155;39.768;2.712;2023-04-10T07:36:46;17.98;;;16.08;;
55290;SDS011;41155;39.768;2.712;2023-04-10T07:39:12;22.17;;;17.05;;
55290;SDS011;41155;39.768;2.712;2023-04-10T07:41:37;24.83;;;19.83;;
55290;SDS011;41155;39.768;2.712;2023-04-10T07:44:03;21.17;;;17.40;;
55290;SDS011;41155;39.768;2.712;2023-04-10T07:46:29;17.30;;;14.65;;
55290;SDS011;41155;39.768;2.712;2023-04-10T07:48:54;15.55;;;13.50;;
55290;SDS011;41155;39.768;2.712;2023-04-10T07:51:20;12.88;;;9.32;;
55290;SDS011;41155;39.768;2.712;2023-04-10T07:53:46;10.30;;;9.30;;
55290;SDS011;41155;39.768;2.712;2023-04-10T07:56:15;13.88;;;12.25;;
55290;SDS011;41155;39.768;2.712;2023-04-10T07:58:45;10.93;;;8.00;;
55290;SDS011;41155;39.768;2.712;2023-04-10T08:01:11;10.07;;;8.75;;
55290;SDS011;41155;39.768;2.712;2023-04-10T08:03:40;15.45;;;8.45;;
55290;SDS011;41155;39.768;2.712;2023-04-10T08:06:08;14.07;;;10.68;;
55290;SDS011;41155;39.768;2.712;2023-04-10T08:08:35;45.47;;;25.30;;
55290;SDS011;41155;39.768;2.712;2023-04-10T08:11:03;35.25;;;17.73;;
55290;SDS011;41155;39.768;2.712;2023-04-10T08:13:31;32.03;;;17.85;;
55290;SDS011;41155;39.768;2.712;2023-04-10T08:15:57;25.27;;;16.33;;
55290;SDS011;41155;39.768;2.712;2023-04-10T08:18:22;17.35;;;15.20;;
55290;SDS011;41155;39.768;2.712;2023-04-10T08:20:48;19.90;;;15.73;;
55290;SDS011;41155;39.768;2.712;2023-04-10T08:23:13;18.75;;;12.23;;
55290;SDS011;41155;39.768;2.712;2023-04-10T08:25:39;17.73;;;12.32;;
55290;SDS011;41155;39.768;2.712;2023-04-10T08:28:04;21.10;;;13.70;;
55290;SDS011;41155;39.768;2.712;2023-04-10T08:30:33;21.05;;;14.02;;
55290;SDS011;41155;39.768;2.712;2023-04-10T08:32:58;21.88;;;12.02;;
55290;SDS011;41155;39.768;2.712;2023-04-10T08:35:23;17.60;;;11.32;;
55290;SDS011;41155;39.768;2.712;2023-04-10T08:37:49;12.40;;;10.32;;
55290;SDS011;41155;39.768;2.712;2023-04-10T08:40:15;15.20;;;13.60;;
55290;SDS011;41155;39.768;2.712;2023-04-10T08:42:40;14.85;;;11.90;;
55290;SDS011;41155;39.768;2.712;2023-04-10T08:45:06;18.23;;;13.23;;
55290;SDS011;41155;39.768;2.712;2023-04-10T08:47:34;18.13;;;12.10;;
55290;SDS011;41155;39.768;2.712;2023-04-10T08:50:05;14.80;;;10.95;;
55290;SDS011;41155;39.768;2.712;2023-04-10T08:52:32;12.18;;;10.27;;
55290;SDS011;41155;39.768;2.712;2023-04-10T08:55:01;13.30;;;9.60;;
55290;SDS011;41155;39.768;2.712;2023-04-10T08:57:30;12.02;;;7.88;;
55290;SDS011;41155;39.768;2.712;2023-04-10T08:59:56;14.00;;;9.73;;
55290;SDS011;41155;39.768;2.712;2023-04-10T09:02:22;10.10;;;7.97;;
55290;SDS011;41155;39.768;2.712;2023-04-10T09:04:49;11.98;;;8.27;;
55290;SDS011;41155;39.768;2.712;2023-04-10T09:07:16;6.88;;;6.13;;
55290;SDS011;41155;39.768;2.712;2023-04-10T09:09:42;7.55;;;6.43;;
55290;SDS011;41155;39.768;2.712;2023-04-10T09:12:08;11.48;;;7.45;;
55290;SDS011;41155;39.768;2.712;2023-04-10T09:14:34;7.13;;;6.43;;
55290;SDS011;41155;39.768;2.712;2023-04-10T09:17:20;8.75;;;6.53;;
55290;SDS011;41155;39.768;2.712;2023-04-10T09:19:47;6.47;;;5.63;;
55290;SDS011;41155;39.768;2.712;2023-04-10T09:22:17;7.55;;;5.75;;
55290;SDS011;41155;39.768;2.712;2023-04-10T09:24:52;8.18;;;5.75;;
55290;SDS011;41155;39.768;2.712;2023-04-10T09:27:28;7.35;;;6.15;;
55290;SDS011;41155;39.768;2.712;2023-04-10T09:29:56;7.00;;;6.20;;
55290;SDS011;41155;39.768;2.712;2023-04-10T09:32:44;7.85;;;6.07;;
55290;SDS011;41155;39.768;2.712;2023-04-10T09:35:13;11.75;;;6.43;;
55290;SDS011;41155;39.768;2.712;2023-04-10T09:37:39;8.40;;;6.25;;
55290;SDS011;41155;39.768;2.712;2023-04-10T09:40:20;10.52;;;8.40;;
55290;SDS011;41155;39.768;2.712;2023-04-10T09:42:48;12.93;;;7.35;;
55290;SDS011;41155;39.768;2.712;2023-04-10T09:45:17;12.68;;;7.35;;
55290;SDS011;41155;39.768;2.712;2023-04-10T09:48:17;7.50;;;6.80;;
55290;SDS011;41155;39.768;2.712;2023-04-10T09:50:36;9.82;;;7.18;;
55290;SDS011;41155;39.768;2.712;2023-04-10T09:53:03;9.25;;;6.57;;
55290;SDS011;41155;39.768;2.712;2023-04-10T09:55:28;10.48;;;6.45;;
55290;SDS011;41155;39.768;2.712;2023-04-10T09:57:54;5.78;;;5.18;;
55290;SDS011;41155;39.768;2.712;2023-04-10T10:00:21;9.07;;;5.30;;
55290;SDS011;41155;39.768;2.712;2023-04-10T10:02:47;6.28;;;5.60;;
55290;SDS011;41155;39.768;2.712;2023-04-10T10:05:14;5.93;;;4.97;;
55290;SDS011;41155;39.768;2.712;2023-04-10T10:07:39;5.00;;;4.60;;
55290;SDS011;41155;39.768;2.712;2023-04-10T10:10:05;7.57;;;5.10;;
55290;SDS011;41155;39.768;2.712;2023-04-10T10:12:34;5.82;;;5.20;;
55290;SDS011;41155;39.768;2.712;2023-04-10T10:17:53;4.33;;;3.93;;
55290;SDS011;41155;39.768;2.712;2023-04-10T10:20:31;5.50;;;4.80;;
55290;SDS011;41155;39.768;2.712;2023-04-10T10:23:01;5.68;;;4.60;;
55290;SDS011;41155;39.768;2.712;2023-04-10T10:25:28;4.70;;;4.30;;
55290;SDS011;41155;39.768;2.712;2023-04-10T10:27:55;5.10;;;4.70;;
55290;SDS011;41155;39.768;2.712;2023-04-10T10:30:27;4.75;;;4.35;;
55290;SDS011;41155;39.768;2.712;2023-04-10T10:32:57;6.28;;;4.70;;
55290;SDS011;41155;39.768;2.712;2023-04-10T10:35:24;4.93;;;4.57;;
55290;SDS011;41155;39.768;2.712;2023-04-10T10:37:51;6.40;;;5.40;;
55290;SDS011;41155;39.768;2.712;2023-04-10T10:43:13;4.90;;;4.50;;
55290;SDS011;41155;39.768;2.712;2023-04-10T10:45:49;5.35;;;4.80;;
55290;SDS011;41155;39.768;2.712;2023-04-10T10:48:20;5.22;;;4.72;;
55290;SDS011;41155;39.768;2.712;2023-04-10T10:50:53;8.30;;;4.70;;
55290;SDS011;41155;39.768;2.712;2023-04-10T10:53:33;5.05;;;4.65;;
55290;SDS011;41155;39.768;2.712;2023-04-10T11:01:12;4.63;;;4.28;;
55290;SDS011;41155;39.768;2.712;2023-04-10T11:03:37;4.80;;;4.25;;
55290;SDS011;41155;39.768;2.712;2023-04-10T11:06:06;7.32;;;3.95;;
55290;SDS011;41155;39.768;2.712;2023-04-10T11:11:19;6.72;;;3.50;;
55290;SDS011;41155;39.768;2.712;2023-04-10T11:16:20;3.80;;;3.50;;
55290;SDS011;41155;39.768;2.712;2023-04-10T11:21:21;4.97;;;3.45;;
55290;SDS011;41155;39.768;2.712;2023-04-10T11:28:59;4.15;;;3.65;;
55290;SDS011;41155;39.768;2.712;2023-04-10T11:31:25;6.20;;;3.80;;
55290;SDS011;41155;39.768;2.712;2023-04-10T11:36:24;5.75;;;4.63;;
55290;SDS011;41155;39.768;2.712;2023-04-10T11:41:40;7.93;;;5.50;;
55290;SDS011;41155;39.768;2.712;2023-04-10T11:44:08;5.22;;;4.72;;
55290;SDS011;41155;39.768;2.712;2023-04-10T11:46:37;5.28;;;4.88;;
55290;SDS011;41155;39.768;2.712;2023-04-10T11:49:04;6.45;;;5.60;;
55290;SDS011;41155;39.768;2.712;2023-04-10T11:51:31;7.13;;;5.18;;
55290;SDS011;41155;39.768;2.712;2023-04-10T11:54:07;6.85;;;5.18;;
55290;SDS011;41155;39.768;2.712;2023-04-10T11:56:35;5.72;;;5.18;;
55290;SDS011;41155;39.768;2.712;2023-04-10T11:59:05;6.60;;;4.53;;
55290;SDS011;41155;39.768;2.712;2023-04-10T12:01:35;6.47;;;4.70;;
55290;SDS011;41155;39.768;2.712;2023-04-10T12:04:01;4.85;;;4.32;;
55290;SDS011;41155;39.768;2.712;2023-04-10T12:06:26;4.78;;;4.32;;
55290;SDS011;41155;39.768;2.712;2023-04-10T12:08:52;4.40;;;4.10;;
55290;SDS011;41155;39.768;2.712;2023-04-10T12:11:22;5.85;;;5.00;;
55290;SDS011;41155;39.768;2.712;2023-04-10T12:13:52;5.85;;;4.47;;
55290;SDS011;41155;39.768;2.712;2023-04-10T12:16:19;8.88;;;4.00;;
55290;SDS011;41155;39.768;2.712;2023-04-10T12:18:45;5.18;;;3.58;;
55290;SDS011;41155;39.768;2.712;2023-04-10T12:21:12;4.25;;;3.75;;
55290;SDS011;41155;39.768;2.712;2023-04-10T12:23:38;6.55;;;4.10;;
55290;SDS011;41155;39.768;2.712;2023-04-10T12:26:11;6.05;;;3.80;;
55290;SDS011;41155;39.768;2.712;2023-04-10T12:28:42;4.35;;;4.00;;
55290;SDS011;41155;39.768;2.712;2023-04-10T12:31:15;4.28;;;3.75;;
55290;SDS011;41155;39.768;2.712;2023-04-10T12:33:47;6.38;;;3.67;;
55290;SDS011;41155;39.768;2.712;2023-04-10T12:36:19;7.45;;;4.15;;
55290;SDS011;41155;39.768;2.712;2023-04-10T12:38:46;4.57;;;3.50;;
55290;SDS011;41155;39.768;2.712;2023-04-10T12:41:11;9.73;;;3.50;;
55290;SDS011;41155;39.768;2.712;2023-04-10T12:43:40;4.93;;;3.58;;
55290;SDS011;41155;39.768;2.712;2023-04-10T12:46:09;3.72;;;3.42;;
55290;SDS011;41155;39.768;2.712;2023-04-10T12:48:47;4.95;;;3.92;;
55290;SDS011;41155;39.768;2.712;2023-04-10T12:51:13;3.72;;;3.40;;
55290;SDS011;41155;39.768;2.712;2023-04-10T12:53:42;4.35;;;3.22;;
55290;SDS011;41155;39.768;2.712;2023-04-10T12:56:08;5.07;;;3.65;;
55290;SDS011;41155;39.768;2.712;2023-04-10T12:58:36;5.88;;;3.90;;
55290;SDS011;41155;39.768;2.712;2023-04-10T13:01:03;3.92;;;3.55;;
55290;SDS011;41155;39.768;2.712;2023-04-10T13:03:32;5.32;;;3.13;;
55290;SDS011;41155;39.768;2.712;2023-04-10T13:05:58;3.28;;;2.85;;
55290;SDS011;41155;39.768;2.712;2023-04-10T13:08:24;3.58;;;3.28;;
55290;SDS011;41155;39.768;2.712;2023-04-10T13:10:51;3.13;;;2.92;;
55290;SDS011;41155;39.768;2.712;2023-04-10T13:13:17;3.83;;;3.45;;
55290;SDS011;41155;39.768;2.712;2023-04-10T13:15:42;7.82;;;3.50;;
55290;SDS011;41155;39.768;2.712;2023-04-10T13:18:08;3.83;;;3.13;;
55290;SDS011;41155;39.768;2.712;2023-04-10T13:20:35;4.07;;;3.25;;
55290;SDS011;41155;39.768;2.712;2023-04-10T13:23:01;4.90;;;2.78;;
55290;SDS011;41155;39.768;2.712;2023-04-10T13:25:29;3.35;;;2.85;;
55290;SDS011;41155;39.768;2.712;2023-04-10T13:27:57;3.47;;;2.75;;
55290;SDS011;41155;39.768;2.712;2023-04-10T13:30:23;4.20;;;2.80;;
55290;SDS011;41155;39.768;2.712;2023-04-10T13:32:48;4.45;;;3.17;;
55290;SDS011;41155;39.768;2.712;2023-04-10T13:35:14;2.88;;;2.67;;
55290;SDS011;41155;39.768;2.712;2023-04-10T13:37:39;2.90;;;2.55;;
55290;SDS011;41155;39.768;2.712;2023-04-10T13:40:05;3.55;;;2.90;;
55290;SDS011;41155;39.768;2.712;2023-04-10T13:42:31;6.63;;;3.45;;
55290;SDS011;41155;39.768;2.712;2023-04-10T13:44:56;4.03;;;3.63;;
55290;SDS011;41155;39.768;2.712;2023-04-10T13:47:22;3.95;;;3.58;;
55290;SDS011;41155;39.768;2.712;2023-04-10T13:49:47;7.70;;;5.63;;
55290;SDS011;41155;39.768;2.712;2023-04-10T13:52:13;8.30;;;4.78;;
55290;SDS011;41155;39.768;2.712;2023-04-10T13:54:38;4.00;;;2.67;;
55290;SDS011;41155;39.768;2.712;2023-04-10T13:57:04;6.20;;;3.47;;
55290;SDS011;41155;39.768;2.712;2023-04-10T13:59:29;3.72;;;2.75;;
55290;SDS011;41155;39.768;2.712;2023-04-10T14:01:55;3.85;;;2.58;;
55290;SDS011;41155;39.768;2.712;2023-04-10T14:04:20;3.58;;;2.80;;
55290;SDS011;41155;39.768;2.712;2023-04-10T14:06:49;5.63;;;2.80;;
55290;SDS011;41155;39.768;2.712;2023-04-10T14:09:15;3.67;;;2.85;;
55290;SDS011;41155;39.768;2.712;2023-04-10T14:11:41;3.22;;;2.83;;
55290;SDS011;41155;39.768;2.712;2023-04-10T14:14:06;4.63;;;4.00;;
55290;SDS011;41155;39.768;2.712;2023-04-10T14:16:32;3.92;;;2.92;;
55290;SDS011;41155;39.768;2.712;2023-04-10T14:18:57;2.92;;;2.58;;
55290;SDS011;41155;39.768;2.712;2023-04-10T14:21:23;2.67;;;2.47;;
55290;SDS011;41155;39.768;2.712;2023-04-10T14:23:48;5.15;;;2.95;;
55290;SDS011;41155;39.768;2.712;2023-04-10T14:26:14;2.80;;;2.60;;
55290;SDS011;41155;39.768;2.712;2023-04-10T14:28:39;4.10;;;2.72;;
55290;SDS011;41155;39.768;2.712;2023-04-10T14:31:05;3.88;;;2.55;;
55290;SDS011;41155;39.768;2.712;2023-04-10T14:33:32;3.47;;;2.80;;
55290;SDS011;41155;39.768;2.712;2023-04-10T14:35:57;6.35;;;2.38;;
55290;SDS011;41155;39.768;2.712;2023-04-10T14:38:23;4.45;;;3.38;;
55290;SDS011;41155;39.768;2.712;2023-04-10T14:40:48;3.58;;;3.28;;
55290;SDS011;41155;39.768;2.712;2023-04-10T14:43:14;3.45;;;2.67;;
55290;SDS011;41155;39.768;2.712;2023-04-10T14:45:40;4.35;;;3.20;;
55290;SDS011;41155;39.768;2.712;2023-04-10T14:48:06;4.10;;;2.80;;
55290;SDS011;41155;39.768;2.712;2023-04-10T14:50:31;9.48;;;3.00;;
55290;SDS011;41155;39.768;2.712;2023-04-10T14:52:57;2.75;;;2.58;;
55290;SDS011;41155;39.768;2.712;2023-04-10T14:55:29;6.13;;;2.83;;
55290;SDS011;41155;39.768;2.712;2023-04-10T14:57:55;9.48;;;2.90;;
55290;SDS011;41155;39.768;2.712;2023-04-10T15:00:21;3.20;;;2.47;;
55290;SDS011;41155;39.768;2.712;2023-04-10T15:02:49;4.43;;;3.00;;
55290;SDS011;41155;39.768;2.712;2023-04-10T15:05:15;4.72;;;3.22;;
55290;SDS011;41155;39.768;2.712;2023-04-10T15:07:40;3.42;;;2.70;;
55290;SDS011;41155;39.768;2.712;2023-04-10T15:10:06;4.15;;;2.90;;
55290;SDS011;41155;39.768;2.712;2023-04-10T15:12:32;5.68;;;3.40;;
55290;SDS011;41155;39.768;2.712;2023-04-10T15:14:57;4.05;;;2.58;;
55290;SDS011;41155;39.768;2.712;2023-04-10T15:17:23;3.15;;;2.78;;
55290;SDS011;41155;39.768;2.712;2023-04-10T15:19:48;7.45;;;2.83;;